Time;durP1;ratioP1;P1;durP2;ratioP2;P2;SDS_P1;SDS_P2;PMS_P1;PMS_P2;Temp;Humidity;BMP_temperature;BMP_pressure;BME280_temperature;BME280_humidity;BME280_pressure;Samples;Min_cycle;Max_cycle;Signal;HPM_P1;HPM_P2
2022/08/26 00:01:47;;;;;;;12.23;7.90;;;24.30;97.30;;;;;;5051268;28;20496;-68
2022/08/26 00:04:12;;;;;;;10.07;6.78;;;24.30;97.40;;;;;;5041292;28;20044;-69
2022/08/26 00:06:39;;;;;;;14.85;7.63;;;24.20;97.50;;;;;;5050323;28;20021;-68
2022/08/26 00:09:04;;;;;;;13.60;7.93;;;24.20;97.50;;;;;;5042344;28;20040;-68
2022/08/26 00:11:30;;;;;;;10.52;7.38;;;24.20;97.60;;;;;;5054479;28;20024;-68
2022/08/26 00:13:57;;;;;;;15.68;7.18;;;24.10;97.60;;;;;;5040214;28;20037;-68
2022/08/26 00:16:25;;;;;;;12.75;7.68;;;24.10;97.70;;;;;;5034348;28;20029;-68
2022/08/26 00:18:51;;;;;;;14.35;8.50;;;24.10;97.80;;;;;;5035259;28;20124;-69
2022/08/26 00:21:17;;;;;;;14.63;7.95;;;24.10;97.80;;;;;;5054222;28;20025;-69
2022/08/26 00:23:43;;;;;;;13.98;8.13;;;24.00;97.80;;;;;;5044606;28;20056;-69
2022/08/26 00:26:10;;;;;;;13.18;7.80;;;24.00;97.90;;;;;;5051597;28;20064;-69
2022/08/26 00:28:35;;;;;;;13.10;8.70;;;24.00;97.90;;;;;;5043553;28;20041;-69
2022/08/26 00:31:01;;;;;;;14.68;8.38;;;24.00;98.00;;;;;;5052795;28;20037;-69
2022/08/26 00:33:27;;;;;;;9.63;7.40;;;24.00;98.10;;;;;;5044932;28;20036;-69
2022/08/26 00:35:52;;;;;;;12.45;8.25;;;23.90;98.10;;;;;;5051293;28;20483;-69
2022/08/26 00:38:18;;;;;;;12.48;8.02;;;23.90;98.10;;;;;;5046189;28;20037;-69
2022/08/26 00:41:02;;;;;;;12.43;8.75;;;23.90;98.20;;;;;;5049855;28;20025;-69
2022/08/26 00:43:31;;;;;;;15.13;7.97;;;23.90;98.20;;;;;;5043515;28;20014;-69
2022/08/26 00:46:18;;;;;;;16.17;8.10;;;23.90;98.30;;;;;;5050906;28;20315;-69
2022/08/26 00:48:48;;;;;;;15.98;8.13;;;23.90;98.40;;;;;;5041680;28;20033;-69
2022/08/26 00:51:18;;;;;;;15.80;8.85;;;23.80;98.40;;;;;;5053637;28;20060;-69
2022/08/26 00:53:57;;;;;;;15.98;9.00;;;23.80;98.50;;;;;;5037922;28;20048;-69
2022/08/26 00:56:30;;;;;;;15.05;8.88;;;23.80;98.50;;;;;;5033934;28;20076;-69
2022/08/26 00:59:00;;;;;;;17.23;9.00;;;23.80;98.60;;;;;;5051016;28;20029;-69
2022/08/26 01:01:27;;;;;;;12.25;8.25;;;23.80;98.60;;;;;;5050936;28;20055;-68
2022/08/26 01:03:54;;;;;;;12.93;9.70;;;23.70;98.60;;;;;;5050110;28;20403;-68
2022/08/26 01:06:21;;;;;;;13.52;8.40;;;23.70;98.70;;;;;;5053586;28;20093;-68
2022/08/26 01:08:47;;;;;;;17.15;8.95;;;23.70;98.70;;;;;;5040307;28;20061;-69
2022/08/26 01:11:14;;;;;;;14.70;9.50;;;23.70;98.80;;;;;;5051408;28;20444;-69
2022/08/26 01:13:41;;;;;;;13.98;9.20;;;23.70;98.80;;;;;;5041599;28;20026;-68
2022/08/26 01:16:11;;;;;;;20.25;8.63;;;23.70;98.90;;;;;;5052436;28;20032;-68
2022/08/26 01:18:38;;;;;;;12.75;8.50;;;23.70;98.90;;;;;;5050456;28;20033;-69
2022/08/26 01:21:26;;;;;;;13.52;8.60;;;23.70;98.90;;;;;;5041005;28;20116;-68
2022/08/26 01:23:53;;;;;;;11.20;8.55;;;23.70;98.90;;;;;;5033357;28;20120;-69
2022/08/26 01:26:40;;;;;;;12.52;8.15;;;23.80;98.90;;;;;;5046130;28;20131;-69
2022/08/26 01:29:10;;;;;;;14.45;8.70;;;23.80;98.90;;;;;;5051430;28;20476;-69
2022/08/26 01:31:41;;;;;;;13.35;7.82;;;23.80;98.90;;;;;;5052322;28;20108;-69
2022/08/26 01:34:24;;;;;;;13.75;7.88;;;23.80;98.90;;;;;;5051917;28;20032;-69
2022/08/26 01:36:55;;;;;;;12.02;8.63;;;23.80;98.90;;;;;;5051967;28;20029;-69
2022/08/26 01:39:21;;;;;;;15.02;8.55;;;23.80;98.90;;;;;;5050155;28;20033;-69
2022/08/26 01:41:49;;;;;;;14.85;8.18;;;23.70;98.90;;;;;;5052699;28;20028;-69
2022/08/26 01:44:20;;;;;;;13.88;8.88;;;23.80;98.90;;;;;;5047107;28;20025;-69
2022/08/26 01:46:48;;;;;;;13.73;8.40;;;23.80;98.90;;;;;;5052594;28;20086;-69
2022/08/26 01:49:14;;;;;;;17.13;8.35;;;23.70;99.00;;;;;;5046274;28;20086;-68
2022/08/26 01:51:40;;;;;;;11.95;8.50;;;23.70;99.00;;;;;;5051233;28;20029;-69
2022/08/26 01:54:07;;;;;;;14.80;9.35;;;23.70;99.10;;;;;;5038062;28;20141;-69
2022/08/26 01:56:34;;;;;;;14.75;8.30;;;23.70;99.10;;;;;;5047503;28;20447;-69
2022/08/26 01:59:04;;;;;;;22.23;9.68;;;23.60;99.20;;;;;;5038544;28;20052;-68
2022/08/26 02:01:31;;;;;;;14.35;8.43;;;23.70;99.20;;;;;;5046405;28;20055;-69
2022/08/26 02:04:16;;;;;;;18.05;10.05;;;23.70;99.30;;;;;;5043470;28;20029;-69
2022/08/26 02:06:43;;;;;;;13.40;8.88;;;23.60;99.30;;;;;;5040398;28;20135;-69
2022/08/26 02:09:09;;;;;;;19.52;9.02;;;23.60;99.30;;;;;;5051294;28;20111;-68
2022/08/26 02:11:35;;;;;;;16.98;9.50;;;23.60;99.40;;;;;;5051073;28;20111;-69
2022/08/26 02:14:29;;;;;;;13.63;8.82;;;23.60;99.40;;;;;;5048799;28;20111;-69
2022/08/26 02:16:55;;;;;;;15.18;9.18;;;23.60;99.40;;;;;;5048860;28;20041;-69
2022/08/26 02:19:26;;;;;;;16.92;9.40;;;23.50;99.50;;;;;;5048477;28;20080;-69
2022/08/26 02:21:52;;;;;;;11.23;8.88;;;23.50;99.50;;;;;;5050812;28;20037;-69
2022/08/26 02:24:24;;;;;;;12.73;9.25;;;23.60;99.60;;;;;;5050657;28;20025;-69
2022/08/26 02:26:50;;;;;;;15.30;9.07;;;23.50;99.60;;;;;;5049389;28;20025;-68
2022/08/26 02:29:22;;;;;;;18.30;9.48;;;23.50;99.60;;;;;;5050437;28;20079;-68
2022/08/26 02:31:48;;;;;;;16.23;8.73;;;23.50;99.60;;;;;;5041739;28;20029;-68
2022/08/26 02:34:19;;;;;;;12.90;8.25;;;23.50;99.60;;;;;;5051377;28;20079;-68
2022/08/26 02:36:45;;;;;;;12.65;8.85;;;23.50;99.70;;;;;;5042231;28;20022;-68
2022/08/26 02:39:11;;;;;;;11.68;8.57;;;23.50;99.70;;;;;;5031712;28;20033;-68
2022/08/26 02:41:37;;;;;;;16.15;8.55;;;23.50;99.70;;;;;;5035078;28;20029;-68
2022/08/26 02:44:05;;;;;;;13.27;9.45;;;23.50;99.70;;;;;;5035517;28;20040;-68
2022/08/26 02:46:30;;;;;;;14.02;8.75;;;23.50;99.80;;;;;;5036467;28;20018;-68
2022/08/26 02:48:57;;;;;;;19.33;9.80;;;23.50;99.80;;;;;;5031572;28;20041;-67
2022/08/26 02:51:22;;;;;;;14.48;10.18;;;23.50;99.90;;;;;;5036972;28;20041;-68
2022/08/26 02:53:48;;;;;;;19.02;10.07;;;23.50;99.90;;;;;;5037796;28;20037;-68
2022/08/26 02:56:14;;;;;;;17.75;9.80;;;23.50;99.90;;;;;;5037659;28;20030;-68
2022/08/26 02:58:39;;;;;;;22.85;10.18;;;23.50;99.90;;;;;;5031425;28;20030;-68
2022/08/26 03:01:05;;;;;;;17.48;9.98;;;23.40;99.90;;;;;;5037822;28;20024;-67
2022/08/26 03:03:31;;;;;;;17.58;9.93;;;23.50;99.90;;;;;;5044989;28;20543;-67
2022/08/26 03:05:57;;;;;;;16.92;10.13;;;23.50;99.90;;;;;;5049389;28;20091;-67
2022/08/26 03:08:23;;;;;;;17.33;10.57;;;23.50;99.90;;;;;;5049923;28;20064;-68
2022/08/26 03:10:48;;;;;;;15.82;9.43;;;23.50;99.90;;;;;;5047139;28;20106;-67
2022/08/26 03:13:14;;;;;;;24.20;9.90;;;23.40;99.90;;;;;;5042404;28;20402;-69
2022/08/26 03:15:40;;;;;;;16.00;8.88;;;23.40;99.90;;;;;;5050383;28;20033;-68
2022/08/26 03:18:06;;;;;;;17.85;9.40;;;23.50;99.90;;;;;;5051061;28;20025;-68
2022/08/26 03:20:32;;;;;;;16.60;8.77;;;23.40;99.90;;;;;;5050582;28;20051;-68
2022/08/26 03:22:58;;;;;;;14.68;9.20;;;23.50;99.90;;;;;;5044450;28;20037;-68
2022/08/26 03:25:24;;;;;;;18.70;9.77;;;23.50;99.90;;;;;;5047620;28;20169;-68
2022/08/26 03:27:51;;;;;;;15.52;8.55;;;23.50;99.90;;;;;;5035058;28;20059;-68
2022/08/26 03:33:02;;;;;;;17.50;9.52;;;23.50;99.90;;;;;;5054653;28;20108;-68
2022/08/26 03:35:28;;;;;;;20.73;8.88;;;23.50;99.90;;;;;;5054691;28;20615;-67
2022/08/26 03:37:54;;;;;;;15.68;9.05;;;23.50;99.90;;;;;;5052726;28;20484;-68
2022/08/26 03:40:20;;;;;;;13.98;8.98;;;23.50;99.90;;;;;;5050541;28;20105;-69
2022/08/26 03:42:46;;;;;;;19.60;11.50;;;23.50;99.90;;;;;;5049806;28;20030;-68
2022/08/26 03:45:13;;;;;;;17.67;9.93;;;23.50;99.90;;;;;;5037952;28;20071;-68
2022/08/26 03:47:39;;;;;;;16.05;9.70;;;23.50;99.90;;;;;;5052545;28;20124;-68
2022/08/26 03:50:06;;;;;;;17.52;9.25;;;23.40;99.90;;;;;;5042776;28;20139;-68
2022/08/26 03:52:31;;;;;;;17.10;11.13;;;23.40;99.90;;;;;;5053634;28;20029;-68
2022/08/26 03:54:57;;;;;;;17.27;9.38;;;23.50;99.90;;;;;;5053043;28;20092;-68
2022/08/26 03:57:22;;;;;;;17.90;10.50;;;23.50;99.90;;;;;;5052254;28;20021;-68
2022/08/26 03:59:48;;;;;;;14.18;9.25;;;23.40;99.90;;;;;;5053645;28;20029;-68
2022/08/26 04:02:14;;;;;;;17.00;9.38;;;23.40;99.90;;;;;;5051941;28;20032;-68
2022/08/26 04:04:39;;;;;;;17.42;10.38;;;23.40;99.90;;;;;;5054394;28;20538;-68
2022/08/26 04:07:05;;;;;;;15.23;9.50;;;23.40;99.90;;;;;;5052376;28;20037;-68
2022/08/26 04:09:32;;;;;;;16.35;10.00;;;23.40;99.90;;;;;;5050974;28;20128;-67
2022/08/26 04:11:57;;;;;;;19.75;9.85;;;23.40;99.90;;;;;;5051986;28;20031;-68
2022/08/26 04:14:25;;;;;;;16.50;9.80;;;23.30;99.90;;;;;;5041700;28;20041;-68
2022/08/26 04:16:53;;;;;;;15.43;9.40;;;23.30;99.90;;;;;;5040902;28;20025;-68
2022/08/26 04:19:20;;;;;;;17.10;11.35;;;23.30;99.90;;;;;;5033976;28;20022;-68
2022/08/26 04:21:46;;;;;;;21.80;10.40;;;23.30;99.90;;;;;;5040646;28;20469;-68
2022/08/26 04:24:14;;;;;;;15.57;9.57;;;23.30;99.90;;;;;;5034045;28;20022;-67
2022/08/26 04:26:41;;;;;;;19.25;10.70;;;23.30;99.90;;;;;;5044709;28;20464;-67
2022/08/26 04:29:25;;;;;;;17.02;10.20;;;23.30;99.90;;;;;;5052805;28;20130;-68
2022/08/26 04:31:54;;;;;;;14.88;9.48;;;23.30;99.90;;;;;;5043489;28;20116;-67
2022/08/26 04:34:24;;;;;;;13.25;9.13;;;23.30;99.90;;;;;;5033832;28;20045;-67
2022/08/26 04:36:50;;;;;;;15.57;10.25;;;23.30;99.90;;;;;;5040792;28;20029;-67
2022/08/26 04:39:18;;;;;;;17.33;9.90;;;23.30;99.90;;;;;;5043581;28;20040;-67
2022/08/26 04:41:45;;;;;;;19.05;10.07;;;23.20;99.90;;;;;;5034425;28;20104;-67
2022/08/26 04:44:14;;;;;;;17.60;9.52;;;23.30;99.90;;;;;;5048620;28;20035;-67
2022/08/26 04:46:40;;;;;;;16.25;11.10;;;23.30;99.90;;;;;;5050602;28;20075;-67
2022/08/26 04:49:07;;;;;;;18.77;10.85;;;23.30;99.90;;;;;;5052827;28;20036;-67
2022/08/26 04:51:34;;;;;;;15.90;10.07;;;23.30;99.90;;;;;;5052825;28;20541;-67
2022/08/26 04:54:00;;;;;;;16.33;9.20;;;23.30;99.90;;;;;;5052394;28;20380;-67
2022/08/26 04:56:30;;;;;;;21.27;10.25;;;23.30;99.90;;;;;;5051746;28;20048;-67
2022/08/26 04:58:55;;;;;;;16.58;9.80;;;23.30;99.90;;;;;;5052926;28;20021;-67
2022/08/26 05:01:21;;;;;;;17.38;10.50;;;23.30;99.90;;;;;;5047611;28;20040;-67
2022/08/26 05:03:48;;;;;;;17.42;9.75;;;23.30;99.90;;;;;;5037490;28;20070;-67
2022/08/26 05:06:14;;;;;;;17.98;10.13;;;23.30;99.90;;;;;;5047659;28;20409;-67
2022/08/26 05:08:40;;;;;;;20.85;9.93;;;23.30;99.90;;;;;;5036931;28;20116;-67
2022/08/26 05:11:06;;;;;;;14.02;9.48;;;23.40;99.90;;;;;;5036427;28;20109;-67
2022/08/26 05:13:33;;;;;;;15.02;10.07;;;23.40;99.90;;;;;;5052494;28;20247;-67
2022/08/26 05:16:02;;;;;;;22.42;11.25;;;23.40;99.90;;;;;;5048794;28;20043;-67
2022/08/26 05:18:29;;;;;;;23.25;10.57;;;23.50;99.90;;;;;;5034358;28;20139;-67
2022/08/26 05:20:54;;;;;;;16.77;10.80;;;23.40;99.90;;;;;;5049101;28;20063;-66
2022/08/26 05:23:21;;;;;;;14.98;9.90;;;23.50;99.90;;;;;;5050097;28;20025;-67
2022/08/26 05:25:48;;;;;;;16.13;9.02;;;23.50;99.90;;;;;;5051664;28;20036;-66
2022/08/26 05:28:16;;;;;;;16.45;9.98;;;23.50;99.90;;;;;;5036244;28;20033;-67
2022/08/26 05:30:43;;;;;;;19.02;10.20;;;23.60;99.90;;;;;;5052082;28;20040;-66
2022/08/26 05:33:09;;;;;;;14.75;10.95;;;23.60;99.90;;;;;;5050128;28;20036;-67
2022/08/26 05:35:37;;;;;;;20.25;10.60;;;23.70;99.90;;;;;;5052092;28;20162;-67
2022/08/26 05:38:06;;;;;;;14.95;10.13;;;23.70;99.90;;;;;;5036197;28;20132;-67
2022/08/26 05:40:44;;;;;;;16.83;10.10;;;23.70;99.90;;;;;;5052777;28;20025;-66
2022/08/26 05:43:12;;;;;;;16.85;10.52;;;23.80;99.90;;;;;;5052166;28;20037;-66
2022/08/26 05:45:39;;;;;;;17.48;10.85;;;23.80;99.90;;;;;;5051491;28;20021;-66
2022/08/26 05:48:08;;;;;;;13.55;9.85;;;23.80;99.90;;;;;;5056112;28;20071;-66
2022/08/26 05:50:39;;;;;;;17.63;11.00;;;23.90;99.90;;;;;;5065203;28;20033;-66
2022/08/26 05:53:06;;;;;;;15.77;8.93;;;23.90;99.90;;;;;;5037528;28;20416;-66
2022/08/26 05:55:32;;;;;;;24.83;11.00;;;24.00;99.90;;;;;;5061693;28;20036;-66
2022/08/26 05:57:57;;;;;;;16.65;11.15;;;24.00;99.90;;;;;;5053915;28;20511;-67
2022/08/26 06:00:23;;;;;;;18.73;10.77;;;24.00;99.90;;;;;;5070370;28;20032;-66
2022/08/26 06:02:49;;;;;;;16.10;9.65;;;24.00;99.90;;;;;;5070249;28;20025;-67
2022/08/26 06:05:14;;;;;;;16.45;9.90;;;24.00;99.90;;;;;;5069563;28;20048;-67
2022/08/26 06:10:24;;;;;;;14.35;9.88;;;24.10;99.90;;;;;;5052188;28;20044;-68
2022/08/26 06:12:50;;;;;;;17.65;10.40;;;24.20;99.90;;;;;;5050033;28;20480;-67
2022/08/26 06:15:16;;;;;;;22.60;10.77;;;24.20;99.90;;;;;;5051663;28;20032;-67
2022/08/26 06:17:41;;;;;;;23.17;10.82;;;24.20;99.90;;;;;;5047250;28;20051;-66
2022/08/26 06:20:07;;;;;;;16.50;10.23;;;24.20;99.90;;;;;;5051742;28;20492;-67
2022/08/26 06:28:02;;;;;;;;;;;24.30;99.90;;;;;;5050585;28;20064;-67
2022/08/26 06:30:27;;;;;;;17.08;9.57;;;24.40;99.90;;;;;;5052079;28;19950;-67
2022/08/26 06:32:53;;;;;;;29.00;11.02;;;24.40;99.90;;;;;;5043549;28;20547;-67
2022/08/26 06:35:18;;;;;;;17.10;10.57;;;24.50;99.90;;;;;;5032079;28;20036;-66
2022/08/26 06:37:44;;;;;;;16.83;10.30;;;24.50;99.90;;;;;;5042994;28;20393;-66
2022/08/26 06:40:10;;;;;;;16.23;9.77;;;24.60;99.90;;;;;;5042082;28;20108;-73
2022/08/26 06:42:36;;;;;;;20.65;10.73;;;24.70;99.90;;;;;;5053438;28;20060;-70
2022/08/26 06:45:02;;;;;;;19.23;10.63;;;24.70;99.90;;;;;;5043725;28;20052;-71
2022/08/26 06:47:28;;;;;;;22.83;10.48;;;24.70;99.90;;;;;;5032752;28;20060;-72
2022/08/26 06:49:54;;;;;;;22.95;10.82;;;24.80;99.90;;;;;;5033700;28;20076;-72
2022/08/26 06:52:19;;;;;;;15.38;9.52;;;24.80;99.90;;;;;;5032316;28;20041;-72
2022/08/26 06:54:45;;;;;;;17.88;10.45;;;24.90;99.90;;;;;;5038508;28;20423;-72
2022/08/26 06:57:11;;;;;;;15.43;9.98;;;24.90;99.90;;;;;;5041694;28;20017;-72
2022/08/26 06:59:36;;;;;;;15.35;9.98;;;25.00;99.90;;;;;;5033712;28;20388;-73
2022/08/26 07:02:02;;;;;;;14.40;10.43;;;25.00;99.90;;;;;;5051971;28;20032;-72
2022/08/26 07:04:28;;;;;;;17.38;10.00;;;25.10;99.90;;;;;;5036776;28;20548;-72
2022/08/26 07:06:55;;;;;;;17.00;9.82;;;25.20;99.90;;;;;;5036866;28;20025;-72
2022/08/26 07:09:23;;;;;;;16.83;9.80;;;25.20;99.90;;;;;;5052431;28;20151;-72
2022/08/26 07:11:50;;;;;;;17.67;9.82;;;25.20;99.80;;;;;;5043943;28;20029;-72
2022/08/26 07:14:17;;;;;;;19.10;10.23;;;25.30;99.80;;;;;;5035302;28;20029;-72
2022/08/26 07:16:43;;;;;;;22.98;10.50;;;25.30;99.80;;;;;;5041350;28;20025;-72
2022/08/26 07:19:09;;;;;;;17.70;9.13;;;25.30;99.70;;;;;;5035896;28;20167;-71
2022/08/26 07:21:35;;;;;;;18.33;9.27;;;25.30;99.70;;;;;;5049871;28;20155;-72
2022/08/26 07:24:00;;;;;;;21.30;10.50;;;25.30;99.70;;;;;;5040522;28;20021;-72
2022/08/26 07:26:28;;;;;;;16.33;9.50;;;25.40;99.80;;;;;;5044882;28;20028;-71
2022/08/26 07:28:56;;;;;;;15.95;9.82;;;25.40;99.70;;;;;;5047343;28;20025;-72
2022/08/26 07:31:24;;;;;;;21.13;10.07;;;25.50;99.80;;;;;;5048167;28;20075;-72
2022/08/26 07:33:50;;;;;;;16.92;9.68;;;25.50;99.70;;;;;;5046650;28;20037;-72
2022/08/26 07:36:19;;;;;;;21.25;9.40;;;25.60;99.70;;;;;;5042988;28;20027;-72
2022/08/26 07:38:46;;;;;;;20.23;10.45;;;25.70;99.60;;;;;;5033925;28;20480;-72
2022/08/26 07:41:13;;;;;;;15.75;8.90;;;25.70;99.60;;;;;;5054535;28;20057;-72
2022/08/26 07:43:39;;;;;;;19.63;9.85;;;25.80;99.60;;;;;;5041196;28;20017;-72
2022/08/26 07:46:06;;;;;;;14.13;8.98;;;25.80;99.30;;;;;;5043756;28;20095;-72
2022/08/26 07:48:33;;;;;;;15.10;9.18;;;25.90;99.40;;;;;;5049253;28;20032;-74
2022/08/26 07:50:59;;;;;;;14.10;8.30;;;25.90;99.30;;;;;;5048656;28;20060;-72
2022/08/26 07:53:25;;;;;;;20.02;9.35;;;26.00;99.30;;;;;;5049331;28;20028;-72
2022/08/26 07:55:51;;;;;;;15.65;9.00;;;26.00;99.30;;;;;;5040699;28;20032;-72
2022/08/26 07:58:16;;;;;;;19.05;9.60;;;26.10;99.30;;;;;;5052190;28;20029;-72
2022/08/26 08:00:42;;;;;;;18.33;8.85;;;26.10;99.20;;;;;;5036766;28;20083;-73
2022/08/26 08:03:08;;;;;;;15.32;10.10;;;26.20;99.20;;;;;;5045906;28;20021;-73
2022/08/26 08:05:35;;;;;;;21.00;9.90;;;26.30;99.30;;;;;;5050103;28;20052;-72
2022/08/26 08:08:04;;;;;;;16.42;8.95;;;26.30;99.10;;;;;;5047598;28;20025;-73
2022/08/26 08:10:30;;;;;;;16.90;8.40;;;26.30;99.00;;;;;;5043432;28;20048;-72
2022/08/26 08:12:56;;;;;;;18.52;8.45;;;26.40;99.10;;;;;;5044068;28;20025;-72
2022/08/26 08:15:26;;;;;;;24.70;10.27;;;26.60;99.10;;;;;;5049056;28;20238;-72
2022/08/26 08:17:52;;;;;;;20.30;9.30;;;26.60;99.00;;;;;;5045780;28;20051;-73
2022/08/26 08:20:19;;;;;;;14.10;8.35;;;26.70;98.80;;;;;;5053385;28;20037;-72
2022/08/26 08:22:44;;;;;;;14.60;8.75;;;26.80;98.60;;;;;;5043573;28;20075;-73
2022/08/26 08:25:11;;;;;;;18.08;8.15;;;26.80;98.70;;;;;;5038065;28;20032;-73
2022/08/26 08:27:38;;;;;;;17.65;7.95;;;26.90;98.60;;;;;;5038001;28;20110;-74
2022/08/26 08:30:05;;;;;;;15.70;7.50;;;27.00;98.40;;;;;;5042386;28;20041;-74
2022/08/26 08:32:31;;;;;;;12.50;6.97;;;27.10;98.20;;;;;;5035856;28;20025;-76
2022/08/26 08:34:57;;;;;;;14.88;7.22;;;27.20;98.10;;;;;;5034070;28;20044;-74
2022/08/26 08:37:23;;;;;;;13.10;7.07;;;27.30;97.80;;;;;;5048214;28;20021;-73
2022/08/26 08:39:49;;;;;;;15.90;7.47;;;27.40;97.70;;;;;;5052315;28;20388;-74
2022/08/26 08:42:36;;;;;;;19.02;7.97;;;27.50;97.70;;;;;;5044917;28;20055;-74
2022/08/26 08:45:14;;;;;;;11.75;7.43;;;27.50;97.40;;;;;;5045724;28;20178;-74
2022/08/26 08:48:03;;;;;;;14.60;7.78;;;27.60;97.30;;;;;;5048907;28;20380;-73
2022/08/26 08:50:34;;;;;;;11.40;7.25;;;27.60;97.30;;;;;;5051539;28;20041;-73
2022/08/26 08:53:15;;;;;;;14.63;7.38;;;27.70;97.40;;;;;;5046714;28;20036;-74
2022/08/26 08:55:59;;;;;;;25.10;8.57;;;27.80;97.20;;;;;;5050150;28;20412;-74
2022/08/26 08:58:41;;;;;;;16.23;7.65;;;27.90;97.20;;;;;;5045955;28;20498;-73
2022/08/26 09:01:17;;;;;;;16.42;8.13;;;27.90;97.00;;;;;;5049688;28;20541;-73
2022/08/26 09:04:00;;;;;;;13.00;7.68;;;28.00;97.00;;;;;;5048752;28;20036;-73
2022/08/26 09:06:26;;;;;;;13.43;6.55;;;28.10;96.90;;;;;;5047981;28;20423;-73
2022/08/26 09:08:51;;;;;;;19.20;8.50;;;28.20;96.80;;;;;;5045760;28;20280;-73
2022/08/26 09:11:19;;;;;;;10.43;6.45;;;28.40;96.70;;;;;;5050475;28;20029;-73
2022/08/26 09:13:53;;;;;;;13.82;7.50;;;28.50;96.50;;;;;;5033419;28;20365;-73
2022/08/26 09:16:58;;;;;;;14.00;6.95;;;28.60;96.60;;;;;;5049294;28;20386;-73
2022/08/26 09:19:41;;;;;;;;;;;28.60;96.30;;;;;;4999428;28;20038;-74
2022/08/26 09:22:07;;;;;;;15.40;6.32;;;28.70;96.60;;;;;;5040727;28;20283;-73
2022/08/26 09:24:36;;;;;;;19.38;8.27;;;28.70;95.90;;;;;;5039432;28;20036;-74
2022/08/26 09:27:02;;;;;;;15.23;6.90;;;28.80;95.60;;;;;;5047797;28;20542;-74
2022/08/26 09:29:30;;;;;;;14.55;6.72;;;28.90;95.60;;;;;;5047728;28;20045;-74
2022/08/26 09:32:20;;;;;;;13.40;6.22;;;28.90;95.20;;;;;;5045289;28;20021;-74
2022/08/26 09:34:58;;;;;;;16.17;7.35;;;29.00;95.20;;;;;;5046930;28;20021;-74
2022/08/26 09:37:39;;;;;;;15.75;7.25;;;29.00;95.10;;;;;;5037659;28;20544;-73
2022/08/26 09:40:32;;;;;;;15.77;6.93;;;29.10;95.10;;;;;;5041051;28;20124;-74
2022/08/26 09:43:20;;;;;;;15.43;6.03;;;29.30;95.40;;;;;;5045830;28;20566;-74
2022/08/26 09:45:53;;;;;;;15.88;6.85;;;29.30;95.00;;;;;;5048984;28;20492;-74
2022/08/26 09:48:34;;;;;;;11.98;6.43;;;29.40;94.40;;;;;;5046754;28;20045;-73
2022/08/26 09:51:21;;;;;;;15.15;6.03;;;29.50;94.10;;;;;;5048122;28;20036;-74
2022/08/26 09:54:05;;;;;;;12.68;5.63;;;29.60;93.80;;;;;;5043159;28;20052;-72
2022/08/26 09:56:37;;;;;;;15.48;6.43;;;29.70;93.90;;;;;;5038913;28;20036;-73
2022/08/26 09:59:08;;;;;;;16.40;6.25;;;29.80;93.70;;;;;;5042139;28;20037;-73
2022/08/26 10:01:35;;;;;;;19.20;7.72;;;29.80;93.30;;;;;;5050341;28;20053;-73
2022/08/26 10:04:09;;;;;;;22.40;8.20;;;29.80;92.90;;;;;;5047455;28;20455;-73
2022/08/26 10:06:42;;;;;;;16.45;5.95;;;29.80;92.90;;;;;;5041325;28;20037;-73
2022/08/26 10:09:12;;;;;;;11.03;5.90;;;29.80;93.10;;;;;;5039312;28;20314;-73
2022/08/26 10:11:52;;;;;;;18.30;7.10;;;29.80;93.00;;;;;;5043513;28;20292;-73
2022/08/26 10:14:25;;;;;;;17.48;6.75;;;29.70;92.90;;;;;;5041265;28;20041;-73
2022/08/26 10:17:15;;;;;;;20.00;7.50;;;29.80;93.10;;;;;;5041681;28;20040;-73
2022/08/26 10:19:47;;;;;;;13.90;6.03;;;29.80;92.70;;;;;;5041853;28;20030;-73
2022/08/26 10:22:19;;;;;;;14.40;6.30;;;29.80;92.20;;;;;;5037878;28;20032;-73
2022/08/26 10:24:51;;;;;;;15.52;6.38;;;29.70;92.10;;;;;;5043441;28;20032;-73
2022/08/26 10:27:40;;;;;;;16.60;6.60;;;29.80;92.40;;;;;;5047673;28;20039;-74
2022/08/26 10:30:11;;;;;;;18.25;6.57;;;29.80;92.20;;;;;;5054330;28;20155;-74
2022/08/26 10:32:41;;;;;;;16.50;7.18;;;29.80;92.30;;;;;;5050421;28;20024;-73
2022/08/26 10:35:11;;;;;;;16.48;6.60;;;29.80;92.00;;;;;;5046130;28;20047;-73
2022/08/26 10:37:45;;;;;;;14.52;6.78;;;29.90;92.00;;;;;;5032299;28;20093;-74
2022/08/26 10:40:42;;;;;;;19.58;6.95;;;29.90;91.80;;;;;;5056111;28;20034;-73
2022/08/26 10:43:29;;;;;;;16.45;6.30;;;30.00;92.00;;;;;;5044115;28;20049;-73
2022/08/26 10:46:15;;;;;;;20.55;7.15;;;30.00;91.90;;;;;;5036943;28;20036;-73
2022/08/26 10:48:48;;;;;;;16.80;7.90;;;30.00;91.80;;;;;;5041347;28;20033;-74
2022/08/26 10:51:18;;;;;;;16.10;6.60;;;30.00;91.60;;;;;;5041464;28;20029;-73
2022/08/26 10:54:09;;;;;;;13.18;6.30;;;30.00;91.50;;;;;;5047128;28;20028;-73
2022/08/26 10:56:56;;;;;;;20.85;6.85;;;30.00;91.60;;;;;;5044412;28;20047;-72
2022/08/26 10:59:56;;;;;;;12.32;6.53;;;30.00;91.40;;;;;;5050354;28;20104;-74
2022/08/26 11:02:36;;;;;;;15.63;6.60;;;30.00;91.50;;;;;;5039545;28;20017;-73
2022/08/26 11:05:15;;;;;;;13.70;7.10;;;30.00;91.10;;;;;;5040199;28;20041;-72
2022/08/26 11:07:45;;;;;;;17.27;7.82;;;30.00;91.20;;;;;;5040730;28;20039;-72
2022/08/26 11:10:20;;;;;;;15.52;6.38;;;29.90;91.20;;;;;;5042798;28;20498;-72
2022/08/26 11:12:53;;;;;;;16.30;7.55;;;29.90;91.20;;;;;;5036420;28;20792;-73
2022/08/26 11:15:18;;;;;;;14.82;7.38;;;29.90;91.20;;;;;;5046453;28;20033;-72
2022/08/26 11:17:47;;;;;;;15.73;6.53;;;29.90;91.20;;;;;;5044124;28;20021;-71
2022/08/26 11:20:21;;;;;;;16.00;8.00;;;29.90;91.30;;;;;;5048214;28;20025;-72
2022/08/26 11:22:49;;;;;;;13.35;6.55;;;29.80;91.30;;;;;;5043233;28;20033;-72
2022/08/26 11:25:22;;;;;;;19.85;7.88;;;29.90;91.40;;;;;;5047592;28;20033;-72
2022/08/26 11:27:51;;;;;;;16.50;6.63;;;29.90;91.30;;;;;;5042899;28;20028;-71
2022/08/26 11:30:18;;;;;;;15.68;7.18;;;29.90;91.20;;;;;;5041365;28;20164;-72
2022/08/26 11:32:47;;;;;;;21.08;7.40;;;29.90;91.30;;;;;;5042783;28;20082;-72
2022/08/26 11:35:36;;;;;;;16.20;7.90;;;29.90;91.10;;;;;;5050469;28;20033;-72
2022/08/26 11:38:01;;;;;;;16.10;6.47;;;29.90;91.10;;;;;;5035875;28;20067;-72
2022/08/26 11:40:37;;;;;;;15.02;7.28;;;29.90;90.90;;;;;;5043927;28;20049;-71
2022/08/26 11:43:12;;;;;;;14.73;7.43;;;29.80;91.00;;;;;;5038813;28;20087;-71
2022/08/26 11:45:40;;;;;;;15.70;7.60;;;29.90;91.20;;;;;;5048601;28;20029;-72
2022/08/26 11:48:39;;;;;;;20.20;7.07;;;29.90;91.20;;;;;;5043224;28;20079;-72
2022/08/26 11:51:22;;;;;;;14.15;6.90;;;29.90;91.30;;;;;;5012590;28;20098;-72
2022/08/26 11:53:49;;;;;;;14.77;7.07;;;29.90;91.30;;;;;;5035434;28;20048;-72
2022/08/26 11:56:33;;;;;;;16.08;7.28;;;29.90;91.40;;;;;;5051855;28;20078;-72
2022/08/26 11:59:02;;;;;;;16.83;8.60;;;29.90;91.50;;;;;;5054665;28;20028;-71
2022/08/26 12:01:47;;;;;;;12.75;8.27;;;29.80;91.70;;;;;;5049168;28;20384;-66
2022/08/26 12:04:26;;;;;;;17.77;7.95;;;29.80;92.20;;;;;;5053149;28;21359;-66
2022/08/26 12:06:52;;;;;;;20.92;8.70;;;29.60;92.90;;;;;;5051807;28;20100;-66
2022/08/26 12:09:54;;;;;;;15.40;7.00;;;29.50;93.50;;;;;;5054219;28;20036;-67
2022/08/26 12:12:25;;;;;;;15.00;5.25;;;29.20;93.10;;;;;;5049163;28;20028;-66
2022/08/26 12:15:17;;;;;;;11.15;4.90;;;29.00;92.60;;;;;;5043965;28;20060;-67
2022/08/26 12:17:44;;;;;;;9.63;5.03;;;28.60;92.30;;;;;;5044823;28;20079;-67
2022/08/26 12:20:30;;;;;;;7.53;4.63;;;28.20;92.70;;;;;;5047121;28;20041;-67
2022/08/26 12:22:57;;;;;;;11.48;4.53;;;27.90;93.20;;;;;;5048405;28;20029;-66
2022/08/26 12:25:24;;;;;;;9.35;4.57;;;27.60;93.40;;;;;;5050658;28;20028;-67
2022/08/26 12:27:50;;;;;;;8.07;4.35;;;27.40;93.80;;;;;;5044602;28;20033;-66
2022/08/26 12:30:21;;;;;;;6.85;4.20;;;27.20;94.20;;;;;;5038217;28;20434;-66
2022/08/26 12:32:50;;;;;;;11.48;5.53;;;27.00;94.50;;;;;;5045386;28;20033;-66
2022/08/26 12:35:18;;;;;;;9.75;5.47;;;26.70;94.70;;;;;;5053212;28;20037;-67
2022/08/26 12:37:48;;;;;;;7.72;5.25;;;26.30;95.00;;;;;;5048805;28;20033;-67
2022/08/26 12:40:38;;;;;;;11.18;5.35;;;26.20;95.40;;;;;;5051178;28;20040;-67
2022/08/26 12:43:05;;;;;;;6.40;4.35;;;26.10;95.50;;;;;;5041010;28;20033;-67
2022/08/26 12:45:34;;;;;;;9.63;5.10;;;25.90;95.80;;;;;;5044497;28;20085;-69
2022/08/26 12:48:19;;;;;;;8.60;4.85;;;25.80;95.90;;;;;;5045514;28;20159;-66
2022/08/26 12:50:50;;;;;;;10.25;5.22;;;25.70;96.10;;;;;;5050932;28;20033;-67
2022/08/26 12:53:27;;;;;;;6.53;4.45;;;25.50;96.20;;;;;;5052925;28;20017;-67
2022/08/26 12:55:56;;;;;;;8.05;4.80;;;25.30;96.20;;;;;;5051071;28;20037;-64
2022/08/26 12:58:36;;;;;;;8.05;4.53;;;25.20;96.40;;;;;;5032248;28;20393;-65
2022/08/26 13:01:07;;;;;;;9.65;4.30;;;25.00;96.60;;;;;;5042505;28;20086;-66
2022/08/26 13:03:32;;;;;;;7.63;4.28;;;24.90;96.70;;;;;;5052675;28;20051;-65